Time;durP1;ratioP1;P1;durP2;ratioP2;P2;SDS_P1;SDS_P2;PMS_P1;PMS_P2;Temp;Humidity;BMP_temperature;BMP_pressure;BME280_temperature;BME280_humidity;BME280_pressure;Samples;Min_cycle;Max_cycle;Signal;HPM_P1;HPM_P2
2022/02/02 00:04:46;;;;;;;;;;;11.40;54.80;;;;;;5080581;28;19958;-70
2022/02/02 00:07:37;;;;;;;;;;;11.40;54.40;;;;;;5080481;28;19912;-70
2022/02/02 00:10:15;;;;;;;;;;;11.40;54.40;;;;;;5080316;28;19935;-70
2022/02/02 00:12:47;;;;;;;;;;;11.30;54.50;;;;;;5079226;28;19912;-71
2022/02/02 00:18:10;;;;;;;;;;;11.20;54.70;;;;;;5080214;28;19983;-70
2022/02/02 00:21:03;;;;;;;;;;;11.20;54.90;;;;;;5079919;28;20141;-70
2022/02/02 00:23:29;;;;;;;;;;;11.20;55.00;;;;;;5080111;28;19930;-70
2022/02/02 00:26:00;;;;;;;;;;;11.20;55.00;;;;;;5080261;28;19975;-70
2022/02/02 00:28:31;;;;;;;;;;;11.20;55.20;;;;;;5080214;28;19931;-70
2022/02/02 00:31:01;;;;;;;;;;;11.30;55.20;;;;;;5080428;28;19954;-70
2022/02/02 00:33:31;;;;;;;;;;;11.30;54.90;;;;;;5080411;28;20089;-70
2022/02/02 00:36:04;;;;;;;;;;;11.40;54.90;;;;;;5078918;28;19905;-70
2022/02/02 00:38:29;;;;;;;;;;;11.40;54.60;;;;;;5080043;28;19916;-70
2022/02/02 00:40:55;;;;;;;;;;;11.40;54.40;;;;;;5080058;28;19944;-70
2022/02/02 00:43:21;;;;;;;;;;;11.30;54.40;;;;;;5078812;28;19919;-70
2022/02/02 00:45:47;;;;;;;;;;;11.30;54.80;;;;;;5080056;28;19919;-69
2022/02/02 00:48:15;;;;;;;;;;;11.30;54.70;;;;;;5079981;28;19904;-70
2022/02/02 00:50:41;;;;;;;;;;;11.20;54.60;;;;;;5079942;28;19914;-70
2022/02/02 00:53:07;;;;;;;;;;;11.20;54.70;;;;;;5079892;28;19916;-70
2022/02/02 00:55:33;;;;;;;;;;;11.10;54.80;;;;;;5079927;28;20010;-70
2022/02/02 00:57:59;;;;;;;;;;;11.10;54.90;;;;;;5079828;28;19920;-70
2022/02/02 01:00:25;;;;;;;;;;;11.10;55.00;;;;;;5079794;28;19991;-70
2022/02/02 01:02:50;;;;;;;;;;;11.10;55.00;;;;;;5079723;28;19919;-69
2022/02/02 01:05:16;;;;;;;;;;;11.10;55.00;;;;;;5079753;28;19913;-69
2022/02/02 01:10:36;;;;;;;;;;;11.30;55.10;;;;;;5079654;28;19923;-70
2022/02/02 01:18:27;;;;;;;;;;;11.30;54.40;;;;;;5079366;28;19931;-70
2022/02/02 01:20:59;;;;;;;;;;;11.20;54.50;;;;;;5078339;28;19909;-70
2022/02/02 01:28:54;;;;;;;;;;;11.20;54.80;;;;;;5080833;28;19919;-70
2022/02/02 01:31:20;;;;;;;;;;;11.10;54.80;;;;;;5083207;28;19913;-68
2022/02/02 01:33:47;;;;;;;;;;;11.10;55.00;;;;;;5083086;28;20188;-70
2022/02/02 01:36:13;;;;;;;;;;;11.10;55.00;;;;;;5083039;28;20242;-70
2022/02/02 01:38:38;;;;;;;;;;;11.10;55.10;;;;;;5083009;28;19920;-70
2022/02/02 01:41:09;;;;;;;;;;;11.10;55.10;;;;;;5082916;28;20218;-70
2022/02/02 01:43:45;;;;;;;;;;;11.10;55.10;;;;;;5082962;28;19932;-70
2022/02/02 01:46:15;;;;;;;;;;;11.10;55.30;;;;;;5082618;28;20232;-70
2022/02/02 01:51:26;;;;;;;;;;;11.40;54.90;;;;;;5082833;28;19936;-70
2022/02/02 01:54:00;;;;;;;;;;;11.40;54.70;;;;;;5082770;28;19913;-69
2022/02/02 01:56:26;;;;;;;;;;;11.40;54.50;;;;;;5082815;28;20453;-70
2022/02/02 01:59:39;;;;;;;;;;;11.50;54.30;;;;;;5082649;28;19916;-70
2022/02/02 02:01:41;;;;;;;;;;;11.30;54.20;;;;;;5082243;28;19905;-71
2022/02/02 02:04:06;;;;;;;;;;;11.20;54.50;;;;;;5082621;28;19946;-70
2022/02/02 02:06:32;;;;;;;;;;;11.10;54.80;;;;;;5081255;28;19905;-70
2022/02/02 02:08:57;;;;;;;;;;;11.10;55.00;;;;;;5082542;28;19905;-70
2022/02/02 02:11:23;;;;;;;;;;;11.00;55.10;;;;;;5082413;28;19905;-71
2022/02/02 02:16:33;;;;;;;;;;;11.10;55.20;;;;;;5082361;28;20100;-70
2022/02/02 02:18:59;;;;;;;;;;;11.00;55.10;;;;;;5082075;28;19924;-70
2022/02/02 02:21:26;;;;;;;;;;;11.00;55.10;;;;;;5082249;28;20056;-70
2022/02/02 02:23:51;;;;;;;;;;;11.10;55.10;;;;;;5082230;28;19970;-69
2022/02/02 02:26:24;;;;;;;;;;;11.10;55.00;;;;;;5082146;28;20189;-70
2022/02/02 02:58:47;;;;;;;;;;;11.00;55.30;;;;;;5079067;28;20255;-70
2022/02/02 03:01:23;;;;;;;;;;;11.00;55.20;;;;;;5080993;28;19905;-71
2022/02/02 03:31:32;;;;;;;;;;;11.00;55.00;;;;;;5080833;28;19939;-69
2022/02/02 03:51:04;;;;;;;;;;;11.20;54.70;;;;;;5080475;28;19912;-70
2022/02/02 03:59:06;;;;;;;;;;;11.00;55.00;;;;;;5080562;28;20100;-69
2022/02/02 04:09:24;;;;;;;;;;;10.90;55.30;;;;;;5080113;28;20275;-70
2022/02/02 04:12:06;;;;;;;;;;;10.90;55.30;;;;;;5080148;28;19970;-72
2022/02/02 04:15:30;;;;;;;;;;;11.00;55.40;;;;;;5080084;28;19954;-70
2022/02/02 04:53:28;;;;;;;;;;;10.90;55.30;;;;;;5079663;28;19950;-69
2022/02/02 04:55:46;;;;;;;;;;;11.00;55.30;;;;;;5079502;28;19954;-70
2022/02/02 05:08:40;;;;;;;;;;;11.20;54.60;;;;;;5083848;28;20197;-70
2022/02/02 05:41:59;;;;;;;;;;;11.10;55.20;;;;;;5082971;28;19919;-70
2022/02/02 05:53:44;;;;;;;;;;;11.00;55.30;;;;;;5082616;28;19905;-70
2022/02/02 05:56:09;;;;;;;;;;;10.90;55.40;;;;;;5082668;28;20000;-70
2022/02/02 05:58:39;;;;;;;;;;;10.90;55.50;;;;;;5082495;28;19916;-70
2022/02/02 06:01:10;;;;;;;;;;;10.90;55.40;;;;;;5081225;28;19913;-70
2022/02/02 06:03:41;;;;;;;;;;;10.90;55.50;;;;;;5082481;28;19932;-70
2022/02/02 06:06:07;;;;;;;;;;;10.90;55.50;;;;;;5082489;28;20258;-70
2022/02/02 06:08:34;;;;;;;;;;;10.90;55.40;;;;;;5082412;28;19919;-70
2022/02/02 06:11:03;;;;;;;;;;;11.00;55.40;;;;;;5082459;28;19999;-70
2022/02/02 06:13:39;;;;;;;;;;;11.00;55.40;;;;;;5082383;28;19912;-69
2022/02/02 06:16:06;;;;;;;;;;;11.10;55.40;;;;;;5082076;28;19948;-70
2022/02/02 06:18:33;;;;;;;;;;;11.10;55.00;;;;;;5082032;28;19924;-69
2022/02/02 06:20:59;;;;;;;;;;;11.00;55.00;;;;;;5081008;28;19912;-69
2022/02/02 06:23:29;;;;;;;;;;;11.00;55.10;;;;;;5082165;28;20239;-70
2022/02/02 06:25:56;;;;;;;;;;;11.00;55.20;;;;;;5082105;28;19995;-70
2022/02/02 06:28:23;;;;;;;;;;;11.00;55.30;;;;;;5082010;28;19913;-70
2022/02/02 06:30:55;;;;;;;;;;;10.90;55.30;;;;;;5082081;28;20380;-70
2022/02/02 06:33:25;;;;;;;;;;;10.90;55.30;;;;;;5081928;28;19913;-71
2022/02/02 06:35:51;;;;;;;;;;;10.90;55.40;;;;;;5081862;28;19912;-70
2022/02/02 06:38:18;;;;;;;;;;;10.90;55.40;;;;;;5081819;28;20197;-70
2022/02/02 06:40:44;;;;;;;;;;;10.90;55.40;;;;;;5081877;28;19912;-70
2022/02/02 06:43:10;;;;;;;;;;;10.90;55.40;;;;;;5081842;28;19916;-71
2022/02/02 06:45:36;;;;;;;;;;;10.90;55.40;;;;;;5081722;28;19904;-70
2022/02/02 06:48:02;;;;;;;;;;;11.10;55.30;;;;;;5081651;28;19919;-70
2022/02/02 06:50:32;;;;;;;;;;;11.20;55.10;;;;;;5081655;28;19911;-70
2022/02/02 06:53:17;;;;;;;;;;;11.20;54.90;;;;;;5081633;28;19905;-69
2022/02/02 06:56:01;;;;;;;;;;;11.20;54.50;;;;;;5081550;28;20147;-70
2022/02/02 06:59:00;;;;;;;;;;;11.10;54.80;;;;;;5081450;28;19908;-70
2022/02/02 07:01:50;;;;;;;;;;;11.00;55.10;;;;;;5081474;28;19939;-70
2022/02/02 07:04:41;;;;;;;;;;;11.00;55.30;;;;;;5081401;28;19904;-70
2022/02/02 07:07:24;;;;;;;;;;;11.00;55.40;;;;;;5081324;28;19911;-69
2022/02/02 07:12:37;;;;;;;;;;;11.00;55.40;;;;;;5081515;28;20018;-70
2022/02/02 07:31:38;;;;;;;;;;;11.30;54.40;;;;;;5081111;28;20200;-70
2022/02/02 07:34:22;;;;;;;;;;;11.20;54.60;;;;;;5080815;28;20263;-69
2022/02/02 07:36:49;;;;;;;;;;;11.10;54.80;;;;;;5080762;28;19927;-70
2022/02/02 07:39:15;;;;;;;;;;;11.10;55.00;;;;;;5080700;28;19926;-70
2022/02/02 07:41:47;;;;;;;;;;;11.00;55.20;;;;;;5080602;28;19919;-70
2022/02/02 07:44:17;;;;;;;;;;;11.00;55.30;;;;;;5080547;28;20113;-70
2022/02/02 07:46:44;;;;;;;;;;;11.00;55.30;;;;;;5080591;28;19912;-69
2022/02/02 07:49:10;;;;;;;;;;;11.00;55.40;;;;;;5080444;28;19912;-70
2022/02/02 07:51:37;;;;;;;;;;;11.00;55.30;;;;;;5080462;28;19913;-70
2022/02/02 07:54:04;;;;;;;;;;;11.00;55.30;;;;;;5080433;28;19971;-70
2022/02/02 07:56:39;;;;;;;;;;;11.10;55.30;;;;;;5080346;28;19912;-70
2022/02/02 07:59:54;;;;;;;;;;;11.20;55.30;;;;;;5080202;28;19921;-71
2022/02/02 08:01:59;;;;;;;;;;;11.30;55.00;;;;;;5077149;28;19946;-69
2022/02/02 08:04:29;;;;;;;;;;;11.30;54.60;;;;;;5080199;28;19912;-69
2022/02/02 08:06:55;;;;;;;;;;;11.20;54.70;;;;;;5080172;28;20400;-69
2022/02/02 08:09:36;;;;;;;;;;;11.30;54.70;;;;;;5080101;28;19928;-70
2022/02/02 08:12:03;;;;;;;;;;;11.20;54.70;;;;;;5080117;28;20169;-70
2022/02/02 08:14:30;;;;;;;;;;;11.20;54.70;;;;;;5080037;28;19912;-69
2022/02/02 08:16:55;;;;;;;;;;;11.10;54.80;;;;;;5080004;28;20212;-70
2022/02/02 08:19:22;;;;;;;;;;;11.10;55.00;;;;;;5079920;28;19924;-69
2022/02/02 08:21:47;;;;;;;;;;;11.10;55.00;;;;;;5078647;28;19905;-70
2022/02/02 08:24:14;;;;;;;;;;;11.10;55.10;;;;;;5079991;28;20069;-70
2022/02/02 08:26:40;;;;;;;;;;;11.10;55.20;;;;;;5079988;28;19912;-70
2022/02/02 08:29:07;;;;;;;;;;;11.00;55.20;;;;;;5079880;28;20242;-70
2022/02/02 08:31:33;;;;;;;;;;;11.10;55.30;;;;;;5079825;28;20242;-70
2022/02/02 08:34:02;;;;;;;;;;;11.20;55.30;;;;;;5079914;28;20396;-70
2022/02/02 08:36:28;;;;;;;;;;;11.20;55.00;;;;;;5079830;28;19904;-70
2022/02/02 08:39:14;;;;;;;;;;;11.30;54.90;;;;;;5078354;28;19916;-70
2022/02/02 08:41:48;;;;;;;;;;;11.30;54.60;;;;;;5079790;28;19951;-70
2022/02/02 08:44:27;;;;;;;;;;;11.30;54.70;;;;;;5079770;28;20469;-70
2022/02/02 08:47:03;;;;;;;;;;;11.30;54.70;;;;;;5079742;28;19959;-70
2022/02/02 08:49:34;;;;;;;;;;;11.40;54.60;;;;;;5079784;28;19912;-70
2022/02/02 08:52:01;;;;;;;;;;;11.40;54.40;;;;;;5079701;28;19920;-69
2022/02/02 08:57:13;;;;;;;;;;;11.40;54.60;;;;;;5079849;28;19908;-69
2022/02/02 08:59:59;;;;;;;;;;;11.40;54.60;;;;;;5079619;28;19931;-69
2022/02/02 09:02:29;;;;;;;;;;;11.30;54.60;;;;;;5079598;28;19998;-70
2022/02/02 09:07:39;;;;;;;;;;;11.30;54.60;;;;;;5079608;28;19973;-70
2022/02/02 09:10:16;;;;;;;;;;;11.40;54.70;;;;;;5078253;28;20200;-69
2022/02/02 09:20:05;;;;;;;;;;;11.30;54.70;;;;;;5079500;28;19919;-70
2022/02/02 09:23:31;;;;;;;;;;;11.30;54.70;;;;;;5079423;28;19976;-70
2022/02/02 09:34:05;;;;;;;;;;;11.40;54.50;;;;;;5079656;28;19913;-70
2022/02/02 09:36:33;;;;;;;;;;;11.40;54.50;;;;;;5079290;28;19975;-71
2022/02/02 09:39:05;;;;;;;;;;;11.40;54.40;;;;;;5079226;28;20166;-71
2022/02/02 09:44:02;;;;;;;;;;;11.40;54.40;;;;;;5079518;28;20010;-70
2022/02/02 09:46:34;;;;;;;;;;;11.40;54.60;;;;;;5079219;28;19911;-70
2022/02/02 09:49:02;;;;;;;;;;;11.40;54.60;;;;;;5079272;28;20297;-71
2022/02/02 09:51:37;;;;;;;;;;;11.40;54.60;;;;;;5082803;28;19904;-70
2022/02/02 09:54:30;;;;;;;;;;;11.40;54.70;;;;;;5082697;28;19905;-70
2022/02/02 10:04:57;;;;;;;;;;;11.40;54.60;;;;;;5082788;28;19958;-70
2022/02/02 10:07:54;;;;;;;;;;;11.40;54.70;;;;;;5081201;28;20109;-69
2022/02/02 10:15:27;;;;;;;;;;;11.40;54.60;;;;;;5082373;28;19936;-70
2022/02/02 10:17:59;;;;;;;;;;;11.50;54.60;;;;;;5082060;28;19923;-70
2022/02/02 10:20:26;;;;;;;;;;;11.50;54.50;;;;;;5082375;28;19916;-71
2022/02/02 10:22:53;;;;;;;;;;;11.50;54.50;;;;;;5082234;28;19916;-71
2022/02/02 10:25:26;;;;;;;;;;;11.50;54.50;;;;;;5080921;28;19904;-70
2022/02/02 10:27:52;;;;;;;;;;;11.50;54.50;;;;;;5082125;28;19905;-70
2022/02/02 10:30:19;;;;;;;;;;;11.50;54.60;;;;;;5082178;28;19904;-70
2022/02/02 10:32:48;;;;;;;;;;;11.50;54.60;;;;;;5080853;28;20003;-70
2022/02/02 10:35:35;;;;;;;;;;;11.50;54.60;;;;;;5081976;28;19913;-70
2022/02/02 10:38:06;;;;;;;;;;;11.50;54.70;;;;;;5081848;28;19916;-70
2022/02/02 10:41:27;;;;;;;;;;;11.50;54.60;;;;;;5080666;28;19924;-70
2022/02/02 10:43:48;;;;;;;;;;;11.50;54.60;;;;;;5078240;28;19954;-69
2022/02/02 10:46:23;;;;;;;;;;;11.50;54.50;;;;;;5081777;28;19912;-69
2022/02/02 10:49:00;;;;;;;;;;;11.60;54.50;;;;;;5081833;28;19904;-69
2022/02/02 10:51:47;;;;;;;;;;;11.60;54.50;;;;;;5081678;28;19912;-69
2022/02/02 10:54:23;;;;;;;;;;;11.60;54.40;;;;;;5081580;28;19968;-70
2022/02/02 10:57:05;;;;;;;;;;;11.60;54.50;;;;;;5080422;28;20589;-69
2022/02/02 11:07:47;;;;;;;;;;;11.60;54.60;;;;;;5081353;28;20438;-70
2022/02/02 11:10:12;;;;;;;;;;;11.60;54.60;;;;;;5081349;28;19904;-70
2022/02/02 11:12:39;;;;;;;;;;;11.60;54.70;;;;;;5081363;28;19936;-70
2022/02/02 11:15:05;;;;;;;;;;;11.60;54.70;;;;;;5081299;28;20120;-70
2022/02/02 11:17:49;;;;;;;;;;;11.60;54.70;;;;;;5080964;28;19908;-70
2022/02/02 11:20:16;;;;;;;;;;;11.60;54.70;;;;;;5081153;28;19912;-70
2022/02/02 11:22:46;;;;;;;;;;;11.60;54.70;;;;;;5081082;28;19919;-70
2022/02/02 11:25:12;;;;;;;;;;;11.60;54.70;;;;;;5081048;28;19904;-70
2022/02/02 11:27:39;;;;;;;;;;;11.60;54.70;;;;;;5080967;28;19981;-69
2022/02/02 11:30:28;;;;;;;;;;;11.60;54.70;;;;;;5080830;28;19920;-69
2022/02/02 11:32:53;;;;;;;;;;;11.60;54.60;;;;;;5082908;28;19943;-70
2022/02/02 11:38:11;;;;;;;;;;;11.70;54.60;;;;;;5081061;28;19994;-69
2022/02/02 11:40:56;;;;;;;;;;;11.70;54.60;;;;;;5080669;28;19908;-70
2022/02/02 11:43:42;;;;;;;;;;;11.70;54.70;;;;;;5080757;28;19905;-69
2022/02/02 11:46:17;;;;;;;;;;;11.70;54.70;;;;;;5080595;28;19966;-70
2022/02/02 11:48:56;;;;;;;;;;;11.60;54.60;;;;;;5079389;28;19972;-70
2022/02/02 11:51:42;;;;;;;;;;;11.60;54.60;;;;;;5080530;28;19919;-70
2022/02/02 11:54:08;;;;;;;;;;;11.60;54.70;;;;;;5083487;28;19926;-70
2022/02/02 11:56:53;;;;;;;;;;;11.70;54.70;;;;;;5080360;28;19951;-70
2022/02/02 11:59:37;;;;;;;;;;;11.60;54.70;;;;;;5080404;28;20011;-70
2022/02/02 12:02:14;;;;;;;;;;;11.70;54.60;;;;;;5080390;28;19909;-70
2022/02/02 12:05:02;;;;;;;;;;;11.70;54.60;;;;;;5079151;28;19912;-70
2022/02/02 12:07:46;;;;;;;;;;;11.70;54.60;;;;;;5080295;28;20105;-70
2022/02/02 12:10:17;;;;;;;;;;;11.70;54.70;;;;;;5080178;28;19904;-70
2022/02/02 12:19:14;;;;;;;;;;;11.70;54.80;;;;;;5079908;28;20124;-70
2022/02/02 12:57:42;;;;;;;;;;;11.70;54.80;;;;;;5077383;28;19985;-69
2022/02/02 13:00:11;;;;;;;;;;;11.70;54.90;;;;;;5079028;28;19962;-70
2022/02/02 13:02:38;;;;;;;;;;;11.70;54.80;;;;;;5079555;28;19905;-71
2022/02/02 13:05:04;;;;;;;;;;;11.80;54.80;;;;;;5079556;28;19920;-70
2022/02/02 13:07:31;;;;;;;;;;;11.80;54.80;;;;;;5079571;28;19981;-71
2022/02/02 13:09:57;;;;;;;;;;;11.80;55.40;;;;;;5079553;28;20257;-70
2022/02/02 13:12:23;;;;;;;;;;;11.80;54.80;;;;;;5078178;28;20159;-69
2022/02/02 13:15:38;;;;;;;;;;;11.80;54.80;;;;;;5079531;28;19912;-70
2022/02/02 13:17:52;;;;;;;;;;;11.70;54.80;;;;;;5076040;28;19935;-69
2022/02/02 13:20:31;;;;;;;;;;;11.80;55.00;;;;;;5079472;28;19958;-69
2022/02/02 13:23:13;;;;;;;;;;;11.70;55.00;;;;;;5079406;28;19912;-69
2022/02/02 13:25:40;;;;;;;;;;;11.70;55.00;;;;;;5081977;28;19911;-70
2022/02/02 13:28:08;;;;;;;;;;;11.80;55.10;;;;;;5083245;28;19949;-70
2022/02/02 13:30:40;;;;;;;;;;;11.70;55.00;;;;;;5083221;28;19912;-71
2022/02/02 13:33:14;;;;;;;;;;;11.80;55.00;;;;;;5083169;28;19950;-70
2022/02/02 13:35:52;;;;;;;;;;;11.80;55.00;;;;;;5083179;28;19920;-71
2022/02/02 13:39:13;;;;;;;;;;;11.80;55.50;;;;;;5082963;28;19912;-70
2022/02/02 13:44:25;;;;;;;;;;;11.70;54.90;;;;;;5083008;28;20010;-70
2022/02/02 13:47:21;;;;;;;;;;;11.70;55.00;;;;;;5082573;28;20104;-70
2022/02/02 13:49:59;;;;;;;;;;;11.70;55.10;;;;;;5082696;28;19919;-69
2022/02/02 13:52:49;;;;;;;;;;;11.70;55.10;;;;;;5082835;28;19990;-69
2022/02/02 13:55:50;;;;;;;;;;;11.80;55.00;;;;;;5082764;28;19916;-70
2022/02/02 13:58:43;;;;;;;;;;;11.80;55.10;;;;;;5082600;28;19917;-70
2022/02/02 14:07:14;;;;;;;;;;;11.80;54.90;;;;;;5082817;28;19913;-70
2022/02/02 14:09:23;;;;;;;;;;;11.80;55.00;;;;;;5078920;28;19947;-69
2022/02/02 14:33:33;;;;;;;;;;;11.80;55.00;;;;;;5081982;28;19935;-70
2022/02/02 14:36:02;;;;;;;;;;;11.80;55.00;;;;;;5081794;28;20006;-69
2022/02/02 14:38:35;;;;;;;;;;;11.80;55.10;;;;;;5081835;28;19909;-70
2022/02/02 14:46:19;;;;;;;;;;;11.80;55.00;;;;;;5081801;28;19913;-70
2022/02/02 14:48:52;;;;;;;;;;;11.80;55.10;;;;;;5081794;28;19912;-70
2022/02/02 15:28:46;;;;;;;;;;;11.70;55.50;;;;;;5080924;28;19997;-70
2022/02/02 15:31:12;;;;;;;;;;;11.70;55.50;;;;;;5080911;28;20211;-69
2022/02/02 15:33:37;;;;;;;;;;;11.70;55.30;;;;;;5080847;28;19905;-69
2022/02/02 15:38:33;;;;;;;;;;;11.70;55.30;;;;;;5080931;28;19908;-70
2022/02/02 15:41:04;;;;;;;;;;;11.70;55.20;;;;;;5080691;28;19918;-70
2022/02/02 15:54:56;;;;;;;;;;;11.70;55.30;;;;;;5080454;28;19911;-70
2022/02/02 16:01:18;;;;;;;;;;;11.70;55.50;;;;;;5080362;28;19908;-70
2022/02/02 16:05:02;;;;;;;;;;;11.70;55.40;;;;;;5080569;28;20084;-70
2022/02/02 16:07:30;;;;;;;;;;;11.70;55.40;;;;;;5080320;28;19904;-70
2022/02/02 16:10:04;;;;;;;;;;;11.60;55.40;;;;;;5080336;28;19952;-69
2022/02/02 16:12:45;;;;;;;;;;;11.70;55.30;;;;;;5079069;28;19939;-70
2022/02/02 16:34:21;;;;;;;;;;;11.70;55.20;;;;;;5080021;28;19954;-70
2022/02/02 16:38:50;;;;;;;;;;;11.70;55.30;;;;;;5080134;28;19955;-69
2022/02/02 16:43:07;;;;;;;;;;;11.70;55.40;;;;;;5079888;28;19939;-70
2022/02/02 16:44:01;;;;;;;;;;;11.60;55.40;;;;;;5079936;28;19935;-69
2022/02/02 16:46:27;;;;;;;;;;;11.70;55.40;;;;;;5079880;28;20251;-70
2022/02/02 16:48:52;;;;;;;;;;;11.70;55.40;;;;;;5079845;28;19909;-70
2022/02/02 16:51:18;;;;;;;;;;;11.70;55.30;;;;;;5079913;28;19904;-70
2022/02/02 16:53:48;;;;;;;;;;;11.70;55.30;;;;;;5079818;28;19987;-70
2022/02/02 16:56:31;;;;;;;;;;;11.70;55.20;;;;;;5080282;28;19959;-70
2022/02/02 17:29:44;;;;;;;;;;;11.70;55.30;;;;;;5083400;28;20152;-69
2022/02/02 17:31:58;;;;;;;;;;;11.70;55.30;;;;;;5083264;28;19979;-69
2022/02/02 17:34:36;;;;;;;;;;;11.70;55.30;;;;;;5083340;28;20005;-70
2022/02/02 17:39:44;;;;;;;;;;;11.70;55.30;;;;;;5083453;28;19930;-69
2022/02/02 17:42:38;;;;;;;;;;;11.70;55.20;;;;;;5083215;28;19912;-70
2022/02/02 18:20:16;;;;;;;;;;;11.70;55.20;;;;;;5082408;28;19921;-69
2022/02/02 18:22:50;;;;;;;;;;;11.70;55.10;;;;;;5082525;28;19912;-70
2022/02/02 18:36:05;;;;;;;;;;;11.70;55.20;;;;;;5082071;28;20338;-71
2022/02/02 18:39:50;;;;;;;;;;;11.70;55.10;;;;;;5080728;28;19916;-70
2022/02/02 18:52:41;;;;;;;;;;;11.70;55.20;;;;;;5081853;28;20267;-69
2022/02/02 20:08:34;;;;;;;;;;;11.70;55.20;;;;;;5080258;28;19919;-70
2022/02/02 20:11:06;;;;;;;;;;;11.70;55.10;;;;;;5080229;28;20483;-70
2022/02/02 20:13:35;;;;;;;;;;;11.70;55.10;;;;;;5080172;28;19911;-69
2022/02/02 20:16:03;;;;;;;;;;;11.70;55.10;;;;;;5080106;28;19912;-69
2022/02/02 20:18:31;;;;;;;;;;;11.70;55.10;;;;;;5079846;28;19952;-70
2022/02/02 20:21:00;;;;;;;;;;;11.70;55.00;;;;;;5080070;28;19904;-70
2022/02/02 20:23:28;;;;;;;;;;;11.70;55.00;;;;;;5078741;28;19912;-71
2022/02/02 20:25:55;;;;;;;;;;;11.70;55.00;;;;;;5079917;28;20034;-70
2022/02/02 20:28:21;;;;;;;;;;;11.70;55.00;;;;;;5080018;28;19918;-70
2022/02/02 20:30:46;;;;;;;;;;;11.70;55.00;;;;;;5078748;28;20099;-71
2022/02/02 20:33:12;;;;;;;;;;;11.60;55.10;;;;;;5079814;28;20112;-70
2022/02/02 20:35:37;;;;;;;;;;;11.70;55.20;;;;;;5079867;28;19911;-70
2022/02/02 20:38:03;;;;;;;;;;;11.70;55.20;;;;;;5079838;28;20212;-69
2022/02/02 20:40:29;;;;;;;;;;;11.60;55.20;;;;;;5079921;28;19919;-70
2022/02/02 20:43:08;;;;;;;;;;;11.70;55.20;;;;;;5079827;28;20144;-70
2022/02/02 21:10:20;;;;;;;;;;;11.70;55.20;;;;;;5079538;28;20119;-70
2022/02/02 21:15:32;;;;;;;;;;;11.70;55.20;;;;;;5079585;28;19959;-70
2022/02/02 21:18:06;;;;;;;;;;;11.60;55.10;;;;;;5079242;28;19999;-70
2022/02/02 21:20:39;;;;;;;;;;;11.70;55.20;;;;;;5079471;28;19956;-70
2022/02/02 21:23:12;;;;;;;;;;;11.70;55.10;;;;;;5079381;28;20322;-70
2022/02/02 21:25:45;;;;;;;;;;;11.70;55.10;;;;;;5079420;28;19912;-70
2022/02/02 21:28:11;;;;;;;;;;;11.70;55.10;;;;;;5079346;28;19939;-70
2022/02/02 21:30:39;;;;;;;;;;;11.70;55.70;;;;;;5079355;28;19911;-70
2022/02/02 21:33:05;;;;;;;;;;;11.70;55.00;;;;;;5079231;28;19944;-70
2022/02/02 21:35:30;;;;;;;;;;;11.70;55.00;;;;;;5079372;28;19962;-70
2022/02/02 21:38:07;;;;;;;;;;;11.70;55.00;;;;;;5079129;28;19922;-70
2022/02/02 21:40:33;;;;;;;;;;;11.70;55.00;;;;;;5079267;28;19932;-69
2022/02/02 21:42:59;;;;;;;;;;;11.70;55.00;;;;;;5079272;28;20114;-70
2022/02/02 21:45:26;;;;;;;;;;;11.70;55.10;;;;;;5079737;28;19969;-69
2022/02/02 21:47:52;;;;;;;;;;;11.70;55.10;;;;;;5082951;28;19911;-70
2022/02/02 21:50:19;;;;;;;;;;;11.70;55.10;;;;;;5082905;28;20097;-69
2022/02/02 21:52:46;;;;;;;;;;;11.60;55.10;;;;;;5082822;28;20220;-69
2022/02/02 21:55:12;;;;;;;;;;;11.60;55.20;;;;;;5082831;28;20207;-70
2022/02/02 21:57:38;;;;;;;;;;;11.60;55.10;;;;;;5082698;28;19944;-70
2022/02/02 22:00:05;;;;;;;;;;;11.60;55.10;;;;;;5082706;28;19912;-70
2022/02/02 22:02:32;;;;;;;;;;;11.60;55.10;;;;;;5082551;28;19944;-71
2022/02/02 22:04:59;;;;;;;;;;;11.60;55.20;;;;;;5082550;28;20082;-70
2022/02/02 22:07:25;;;;;;;;;;;11.70;55.10;;;;;;5082587;28;19912;-70
2022/02/02 22:09:55;;;;;;;;;;;11.70;55.10;;;;;;5082515;28;20205;-70
2022/02/02 22:12:21;;;;;;;;;;;11.70;55.10;;;;;;5082434;28;19912;-69
2022/02/02 22:14:49;;;;;;;;;;;11.70;55.00;;;;;;5081113;28;19950;-70
2022/02/02 22:17:16;;;;;;;;;;;11.60;55.10;;;;;;5082337;28;19987;-70
2022/02/02 22:19:41;;;;;;;;;;;11.60;55.00;;;;;;5082221;28;19931;-70
2022/02/02 22:22:07;;;;;;;;;;;11.70;55.00;;;;;;5082317;28;19905;-70
2022/02/02 22:24:36;;;;;;;;;;;11.70;55.00;;;;;;5082235;28;20096;-70
2022/02/02 22:27:02;;;;;;;;;;;11.70;55.00;;;;;;5082277;28;19971;-70
2022/02/02 22:29:27;;;;;;;;;;;11.70;55.00;;;;;;5082187;28;19961;-70
2022/02/02 22:31:53;;;;;;;;;;;11.60;55.10;;;;;;5082050;28;19913;-69
2022/02/02 22:34:18;;;;;;;;;;;11.60;55.20;;;;;;5082104;28;19912;-70
2022/02/02 22:36:44;;;;;;;;;;;11.60;55.10;;;;;;5082041;28;19913;-69
2022/02/02 22:39:10;;;;;;;;;;;11.60;55.20;;;;;;5081972;28;19916;-71
2022/02/02 22:41:36;;;;;;;;;;;11.60;55.20;;;;;;5082020;28;19913;-69
2022/02/02 22:44:07;;;;;;;;;;;11.70;55.10;;;;;;5081901;28;19951;-70
2022/02/02 22:46:34;;;;;;;;;;;11.70;55.10;;;;;;5081862;28;19908;-69
2022/02/02 22:49:00;;;;;;;;;;;11.70;55.00;;;;;;5081852;28;20179;-69
2022/02/02 22:51:27;;;;;;;;;;;11.70;55.00;;;;;;5081706;28;19919;-69
2022/02/02 22:53:53;;;;;;;;;;;11.70;55.00;;;;;;5081739;28;19908;-71
2022/02/02 22:56:18;;;;;;;;;;;11.70;55.00;;;;;;5080369;28;20393;-70
2022/02/02 22:58:48;;;;;;;;;;;11.60;55.00;;;;;;5081533;28;19930;-70
2022/02/02 23:01:14;;;;;;;;;;;11.60;55.00;;;;;;5081526;28;19916;-70
2022/02/02 23:03:40;;;;;;;;;;;11.60;55.60;;;;;;5081508;28;20155;-69
2022/02/02 23:06:08;;;;;;;;;;;11.60;55.10;;;;;;5081482;28;19986;-70
2022/02/02 23:08:34;;;;;;;;;;;11.60;55.00;;;;;;5081355;28;19920;-70
2022/02/02 23:11:00;;;;;;;;;;;11.60;55.10;;;;;;5081402;28;19917;-69
2022/02/02 23:13:27;;;;;;;;;;;11.70;55.10;;;;;;5081308;28;19912;-68
2022/02/02 23:18:34;;;;;;;;;;;11.60;55.00;;;;;;5081192;28;19928;-70
2022/02/02 23:21:06;;;;;;;;;;;11.70;55.00;;;;;;5081143;28;19912;-70
2022/02/02 23:23:35;;;;;;;;;;;11.70;55.00;;;;;;5081070;28;20183;-69
2022/02/02 23:26:02;;;;;;;;;;;11.70;55.00;;;;;;5081076;28;19951;-69
2022/02/02 23:28:29;;;;;;;;;;;11.70;55.00;;;;;;5081007;28;19908;-69
2022/02/02 23:30:56;;;;;;;;;;;11.60;55.10;;;;;;5080895;28;19912;-71
2022/02/02 23:33:21;;;;;;;;;;;11.60;55.10;;;;;;5080941;28;19912;-70
2022/02/02 23:35:47;;;;;;;;;;;11.60;55.00;;;;;;5080869;28;19967;-70
2022/02/02 23:38:14;;;;;;;;;;;11.60;55.00;;;;;;5080728;28;19908;-70
2022/02/02 23:43:28;;;;;;;;;;;11.50;54.90;;;;;;5070299;28;20226;-70
2022/02/02 23:45:57;;;;;;;;;;;11.50;55.10;;;;;;5079427;28;19912;-70
2022/02/02 23:48:24;;;;;;;;;;;11.40;55.40;;;;;;5080575;28;19911;-70
2022/02/02 23:50:52;;;;;;;;;;;11.50;55.50;;;;;;5080628;28;19980;-70
2022/02/02 23:53:19;;;;;;;;;;;11.50;55.30;;;;;;5080518;28;20214;-70
2022/02/02 23:56:00;;;;;;;;;;;11.60;55.20;;;;;;5080414;28;19948;-70
2022/02/02 23:58:34;;;;;;;;;;;11.60;55.10;;;;;;5080373;28;19991;-70
